createdAt,value
2023-05-15T00:01:15.702Z,13.90
2023-05-15T00:02:47.973Z,13.89
2023-05-15T00:04:20.118Z,13.88
2023-05-15T00:05:52.916Z,13.87
2023-05-15T00:07:25.027Z,13.86
2023-05-15T00:08:57.354Z,13.84
2023-05-15T00:10:29.437Z,13.84
2023-05-15T00:12:01.631Z,13.82
2023-05-15T00:13:33.638Z,13.84
2023-05-15T00:15:06.330Z,13.85
2023-05-15T00:16:38.428Z,13.85
2023-05-15T00:18:10.707Z,13.86
2023-05-15T00:19:43.013Z,13.84
2023-05-15T00:21:15.149Z,13.82
2023-05-15T00:22:47.266Z,13.79
2023-05-15T00:24:19.477Z,13.73
2023-05-15T00:25:51.780Z,13.69
2023-05-15T00:27:23.797Z,13.67
2023-05-15T00:28:56.046Z,13.67
2023-05-15T00:30:28.600Z,13.68
2023-05-15T00:32:00.799Z,13.68
2023-05-15T00:33:33.041Z,13.68
2023-05-15T00:35:06.901Z,13.67
2023-05-15T00:36:39.048Z,13.60
2023-05-15T00:38:11.451Z,13.62
2023-05-15T00:39:43.662Z,13.60
2023-05-15T00:41:16.266Z,13.59
2023-05-15T00:42:48.827Z,13.56
2023-05-15T00:44:22.272Z,13.55
2023-05-15T00:45:54.408Z,13.63
2023-05-15T00:47:27.308Z,13.56
2023-05-15T00:48:59.509Z,13.50
2023-05-15T00:50:33.372Z,13.51
2023-05-15T00:52:08.845Z,13.42
2023-05-15T00:53:41.370Z,13.45
2023-05-15T00:55:13.545Z,13.46
2023-05-15T00:56:45.726Z,13.45
2023-05-15T00:59:50.498Z,13.45
2023-05-15T01:01:22.732Z,13.45
2023-05-15T01:02:55.104Z,13.45
2023-05-15T01:04:27.281Z,13.47
2023-05-15T01:05:59.511Z,13.50
2023-05-15T01:07:35.593Z,13.53
2023-05-15T01:09:08.703Z,13.52
2023-05-15T01:10:42.468Z,13.55
2023-05-15T01:12:17.224Z,13.56
2023-05-15T01:13:49.355Z,13.53
2023-05-15T01:15:21.722Z,13.53
2023-05-15T01:16:53.841Z,13.51
2023-05-15T01:18:32.481Z,13.47
2023-05-15T01:20:07.810Z,13.43
2023-05-15T01:22:16.216Z,13.43
2023-05-15T01:24:25.615Z,13.40
2023-05-15T01:26:06.224Z,13.31
2023-05-15T01:27:46.078Z,13.33
2023-05-15T01:29:28.231Z,13.32
2023-05-15T01:31:04.837Z,13.28
2023-05-15T01:32:58.536Z,13.24
2023-05-15T01:34:37.379Z,13.19
2023-05-15T01:36:17.273Z,13.14
2023-05-15T01:38:04.472Z,13.11
2023-05-15T01:39:39.713Z,13.08
2023-05-15T01:41:25.557Z,13.09
2023-05-15T01:43:06.590Z,13.08
2023-05-15T01:44:45.250Z,13.06
2023-05-15T01:46:20.715Z,13.02
2023-05-15T01:47:54.131Z,13.00
2023-05-15T01:49:29.211Z,13.00
2023-05-15T01:51:04.019Z,12.93
2023-05-15T01:52:39.420Z,12.91
2023-05-15T01:54:12.532Z,12.86
2023-05-15T01:55:45.697Z,12.84
2023-05-15T01:58:51.284Z,12.79
2023-05-15T02:00:24.690Z,12.74
2023-05-15T02:01:57.676Z,12.81
2023-05-15T02:03:34.349Z,12.76
2023-05-15T02:05:07.225Z,12.73
2023-05-15T02:06:40.096Z,12.66
2023-05-15T02:08:13.267Z,12.55
2023-05-15T02:09:45.905Z,12.49
2023-05-15T02:11:18.027Z,12.47
2023-05-15T02:12:50.821Z,12.48
2023-05-15T02:14:23.209Z,12.46
2023-05-15T02:15:55.355Z,12.49
2023-05-15T02:17:28.434Z,12.52
2023-05-15T02:19:00.447Z,12.54
2023-05-15T02:20:32.630Z,12.56
2023-05-15T02:22:04.865Z,12.59
2023-05-15T02:23:36.913Z,12.59
2023-05-15T02:25:09.284Z,12.60
2023-05-15T02:27:05.953Z,12.66
2023-05-15T02:28:54.280Z,12.68
2023-05-15T02:30:46.964Z,12.69
2023-05-15T02:32:44.961Z,12.68
2023-05-15T02:34:36.778Z,12.67
2023-05-15T02:36:10.414Z,12.66
2023-05-15T02:37:43.044Z,12.58
2023-05-15T02:39:16.576Z,12.52
2023-05-15T02:40:48.840Z,12.48
2023-05-15T02:42:21.757Z,12.44
2023-05-15T02:43:55.852Z,12.39
2023-05-15T02:45:28.920Z,12.35
2023-05-15T02:47:02.824Z,12.32
2023-05-15T02:48:36.295Z,12.34
2023-05-15T02:50:08.795Z,12.30
2023-05-15T02:51:41.243Z,12.28
2023-05-15T02:53:14.887Z,12.27
2023-05-15T02:54:46.983Z,12.27
2023-05-15T02:56:19.152Z,12.28
2023-05-15T02:57:51.308Z,12.28
2023-05-15T02:59:23.592Z,12.31
2023-05-15T03:00:55.761Z,12.29
2023-05-15T03:04:04.716Z,12.21
2023-05-15T03:05:36.849Z,12.20
2023-05-15T03:07:09.016Z,12.19
2023-05-15T03:08:41.288Z,12.23
2023-05-15T03:10:13.411Z,12.24
2023-05-15T03:11:45.604Z,12.24
2023-05-15T03:13:17.702Z,12.20
2023-05-15T03:14:49.946Z,12.19
2023-05-15T03:16:22.246Z,12.17
2023-05-15T03:17:54.354Z,12.17
2023-05-15T03:19:26.569Z,12.14
2023-05-15T03:20:58.733Z,12.16
2023-05-15T03:22:30.971Z,12.15
2023-05-15T03:24:03.070Z,12.16
2023-05-15T03:25:35.221Z,12.14
2023-05-15T03:27:07.334Z,12.11
2023-05-15T03:28:41.676Z,12.10
2023-05-15T03:30:14.439Z,12.08
2023-05-15T03:31:47.048Z,12.05
2023-05-15T03:33:19.302Z,12.07
2023-05-15T03:34:51.428Z,12.05
2023-05-15T03:36:23.576Z,12.08
2023-05-15T03:37:55.707Z,12.10
2023-05-15T03:39:27.784Z,12.14
2023-05-15T03:40:59.867Z,12.17
2023-05-15T03:42:31.956Z,12.15
2023-05-15T03:44:04.147Z,12.20
2023-05-15T03:45:36.840Z,12.25
2023-05-15T03:47:08.922Z,12.23
2023-05-15T03:48:41.026Z,12.26
2023-05-15T03:50:13.611Z,12.28
2023-05-15T03:51:45.888Z,12.30
2023-05-15T03:53:18.000Z,12.32
2023-05-15T03:54:50.966Z,12.35
2023-05-15T03:56:23.123Z,12.32
2023-05-15T03:57:55.326Z,12.32
2023-05-15T03:59:27.409Z,12.33
2023-05-15T04:00:59.556Z,12.30
2023-05-15T04:02:31.823Z,12.29
2023-05-15T04:04:04.357Z,12.30
2023-05-15T04:05:36.675Z,12.33
2023-05-15T04:07:08.947Z,12.35
2023-05-15T04:08:41.551Z,12.38
2023-05-15T04:10:14.054Z,12.38
2023-05-15T04:11:47.137Z,12.38
2023-05-15T04:13:19.307Z,12.39
2023-05-15T04:14:51.363Z,12.40
2023-05-15T04:16:23.714Z,12.39
2023-05-15T04:17:55.942Z,12.44
2023-05-15T04:19:28.107Z,12.46
2023-05-15T04:21:00.172Z,12.47
2023-05-15T04:22:32.337Z,12.50
2023-05-15T04:24:04.693Z,12.53
2023-05-15T04:25:36.971Z,12.56
2023-05-15T04:27:09.533Z,12.55
2023-05-15T04:28:52.298Z,12.61
2023-05-15T04:30:28.500Z,12.63
2023-05-15T04:32:00.782Z,12.68
2023-05-15T04:33:32.949Z,12.72
2023-05-15T04:35:13.757Z,12.78
2023-05-15T04:36:48.789Z,12.80
2023-05-15T04:38:21.038Z,12.82
2023-05-15T04:39:53.127Z,12.79
2023-05-15T04:41:25.223Z,12.87
2023-05-15T04:42:57.574Z,12.89
2023-05-15T04:44:29.706Z,12.94
2023-05-15T04:46:01.817Z,12.98
2023-05-15T04:47:34.193Z,13.01
2023-05-15T04:49:07.127Z,13.06
2023-05-15T04:50:39.251Z,13.12
2023-05-15T04:52:11.530Z,13.18
2023-05-15T04:53:43.655Z,13.23
2023-05-15T04:55:15.858Z,13.28
2023-05-15T04:56:47.950Z,13.32
2023-05-15T04:58:20.139Z,13.40
2023-05-15T04:59:52.388Z,13.44
2023-05-15T05:01:24.655Z,13.48
2023-05-15T05:02:56.950Z,13.54
2023-05-15T05:04:29.174Z,13.62
2023-05-15T05:06:01.468Z,13.66
2023-05-15T05:07:34.429Z,13.73
2023-05-15T05:09:06.493Z,13.82
2023-05-15T05:10:38.758Z,13.87
2023-05-15T05:12:11.230Z,13.94
2023-05-15T05:13:43.468Z,14.01
2023-05-15T05:15:18.308Z,14.08
2023-05-15T05:16:50.623Z,14.16
2023-05-15T05:18:22.745Z,14.22
2023-05-15T05:19:54.990Z,14.28
2023-05-15T05:21:27.323Z,14.34
2023-05-15T05:22:59.432Z,14.40
2023-05-15T05:24:32.503Z,14.45
2023-05-15T05:26:06.058Z,14.49
2023-05-15T05:27:38.377Z,14.54
2023-05-15T05:29:11.274Z,14.62
2023-05-15T05:30:46.651Z,14.70
2023-05-15T05:32:18.785Z,14.71
2023-05-15T05:33:51.813Z,14.78
2023-05-15T05:35:24.096Z,14.80
2023-05-15T05:36:56.750Z,14.82
2023-05-15T05:38:28.861Z,14.83
2023-05-15T05:40:01.096Z,14.90
2023-05-15T05:41:33.378Z,14.92
2023-05-15T05:43:05.842Z,15.01
2023-05-15T05:44:37.945Z,15.06
2023-05-15T05:46:13.294Z,15.07
2023-05-15T05:47:46.105Z,15.14
2023-05-15T05:49:18.253Z,15.16
2023-05-15T05:50:50.580Z,15.21
2023-05-15T05:52:22.601Z,15.25
2023-05-15T05:53:54.924Z,15.32
2023-05-15T05:55:27.445Z,15.36
2023-05-15T05:56:59.743Z,15.38
2023-05-15T05:58:31.937Z,15.42
2023-05-15T06:00:09.229Z,15.49
2023-05-15T06:01:41.380Z,15.52
2023-05-15T06:03:13.786Z,15.53
2023-05-15T06:04:46.748Z,15.62
2023-05-15T06:06:19.095Z,15.66
2023-05-15T06:07:51.277Z,15.70
2023-05-15T06:09:23.340Z,15.75
2023-05-15T06:10:55.459Z,15.78
2023-05-15T06:12:28.593Z,15.85
2023-05-15T06:14:01.137Z,15.87
2023-05-15T06:15:33.219Z,15.91
2023-05-15T06:17:05.657Z,15.93
2023-05-15T06:18:37.871Z,15.99
2023-05-15T06:20:10.405Z,16.05
2023-05-15T06:21:42.558Z,16.08
2023-05-15T06:23:14.682Z,16.11
2023-05-15T06:24:46.765Z,16.14
2023-05-15T06:26:18.909Z,16.19
2023-05-15T06:27:51.032Z,16.25
2023-05-15T06:29:23.197Z,16.27
2023-05-15T06:30:55.425Z,16.33
2023-05-15T06:32:27.693Z,16.34
2023-05-15T06:35:31.878Z,16.44
2023-05-15T06:37:04.097Z,16.50
2023-05-15T06:38:36.481Z,16.50
2023-05-15T06:40:09.274Z,16.51
2023-05-15T06:41:41.447Z,16.52
2023-05-15T06:43:13.672Z,16.58
2023-05-15T06:44:47.883Z,16.60
2023-05-15T06:46:20.157Z,16.62
2023-05-15T06:47:52.297Z,16.65
2023-05-15T06:49:25.311Z,16.70
2023-05-15T06:50:57.426Z,16.71
2023-05-15T06:52:29.720Z,16.72
2023-05-15T06:54:01.921Z,16.75
2023-05-15T06:55:35.097Z,16.78
2023-05-15T06:57:07.320Z,16.78
2023-05-15T06:58:39.488Z,16.86
2023-05-15T07:00:12.615Z,16.89
2023-05-15T07:01:44.904Z,16.93
2023-05-15T07:03:17.194Z,16.98
2023-05-15T07:04:49.321Z,17.03
2023-05-15T07:06:21.587Z,17.06
2023-05-15T07:07:53.769Z,17.17
2023-05-15T07:09:25.965Z,17.24
2023-05-15T07:10:58.128Z,17.30
2023-05-15T07:12:30.250Z,17.41
2023-05-15T07:14:02.835Z,17.46
2023-05-15T07:15:34.943Z,17.52
2023-05-15T07:17:07.162Z,17.57
2023-05-15T07:18:39.597Z,17.62
2023-05-15T07:20:12.126Z,17.65
2023-05-15T07:21:45.531Z,17.70
2023-05-15T07:23:17.464Z,17.80
2023-05-15T07:24:49.596Z,17.77
2023-05-15T07:26:32.860Z,17.76
2023-05-15T07:28:08.691Z,17.78
2023-05-15T07:29:40.808Z,17.82
2023-05-15T07:31:12.977Z,17.85
2023-05-15T07:32:45.315Z,17.88
2023-05-15T07:34:17.566Z,17.90
2023-05-15T07:35:51.322Z,17.98
2023-05-15T07:37:26.163Z,18.00
2023-05-15T07:38:58.985Z,18.06
2023-05-15T07:40:31.877Z,18.14
2023-05-15T07:42:04.141Z,18.18
2023-05-15T07:43:36.875Z,18.21
2023-05-15T07:45:09.784Z,18.28
2023-05-15T07:46:42.239Z,18.33
2023-05-15T07:48:18.278Z,18.39
2023-05-15T07:49:50.417Z,18.34
2023-05-15T07:51:22.732Z,18.36
2023-05-15T07:52:54.823Z,18.35
2023-05-15T07:54:27.351Z,18.37
2023-05-15T07:55:59.969Z,18.38
2023-05-15T07:57:32.424Z,18.36
2023-05-15T07:59:04.566Z,18.37
2023-05-15T08:00:37.292Z,18.37
2023-05-15T08:03:42.254Z,18.42
2023-05-15T08:05:14.596Z,18.40
2023-05-15T08:06:46.771Z,18.43
2023-05-15T08:08:18.851Z,18.47
2023-05-15T08:09:52.259Z,18.47
2023-05-15T08:11:24.367Z,18.45
2023-05-15T08:12:56.620Z,18.39
2023-05-15T08:14:28.890Z,18.43
2023-05-15T08:16:01.156Z,18.44
2023-05-15T08:17:33.402Z,18.46
2023-05-15T08:19:07.553Z,18.48
2023-05-15T08:20:39.641Z,18.48
2023-05-15T08:22:12.241Z,18.55
2023-05-15T08:23:44.370Z,18.56
2023-05-15T08:25:16.596Z,18.58
2023-05-15T08:26:48.697Z,18.58
2023-05-15T08:28:20.751Z,18.65
2023-05-15T08:29:53.232Z,18.67
2023-05-15T08:31:25.547Z,18.68
2023-05-15T08:32:57.794Z,18.69
2023-05-15T08:34:30.373Z,18.75
2023-05-15T08:36:02.485Z,18.75
2023-05-15T08:37:34.658Z,18.77
2023-05-15T08:39:07.757Z,18.77
2023-05-15T08:40:41.414Z,18.84
2023-05-15T08:42:22.605Z,18.88
2023-05-15T08:43:56.004Z,18.87
2023-05-15T08:45:28.444Z,18.86
2023-05-15T08:47:04.221Z,18.88
2023-05-15T08:48:38.695Z,18.89
2023-05-15T08:50:15.845Z,18.89
2023-05-15T08:51:48.795Z,18.85
2023-05-15T08:53:21.313Z,18.88
2023-05-15T08:54:54.130Z,18.88
2023-05-15T08:56:26.549Z,18.88
2023-05-15T08:57:59.402Z,18.87
2023-05-15T08:59:31.954Z,18.85
2023-05-15T09:01:04.166Z,18.84
2023-05-15T09:02:37.937Z,18.85
2023-05-15T09:04:10.532Z,18.80
2023-05-15T09:05:43.012Z,18.79
2023-05-15T09:07:16.186Z,18.79
2023-05-15T09:08:48.938Z,18.77
2023-05-15T09:10:21.681Z,18.78
2023-05-15T09:11:54.258Z,18.77
2023-05-15T09:13:26.496Z,18.77
2023-05-15T09:15:18.256Z,18.80
2023-05-15T09:16:53.719Z,18.75
2023-05-15T09:18:25.958Z,18.74
2023-05-15T09:19:58.102Z,18.69
2023-05-15T09:21:34.087Z,18.72
2023-05-15T09:23:26.219Z,18.73
2023-05-15T09:24:58.626Z,18.69
2023-05-15T09:26:30.995Z,18.68
2023-05-15T09:28:03.133Z,18.68
2023-05-15T09:29:37.479Z,18.68
2023-05-15T09:31:09.842Z,18.67
2023-05-15T09:32:42.201Z,18.65
2023-05-15T09:34:14.486Z,18.61
2023-05-15T09:35:46.692Z,18.56
2023-05-15T09:37:30.418Z,18.58
2023-05-15T09:39:03.367Z,18.60
2023-05-15T09:40:35.544Z,18.55
2023-05-15T09:42:09.000Z,18.53
2023-05-15T09:43:41.909Z,18.50
2023-05-15T09:45:19.921Z,18.51
2023-05-15T09:46:52.902Z,18.47
2023-05-15T09:48:25.236Z,18.49
2023-05-15T09:49:57.479Z,18.53
2023-05-15T09:51:29.607Z,18.57
2023-05-15T09:53:01.858Z,18.59
2023-05-15T11:32:48.741Z,19.34
2023-05-15T11:34:38.548Z,19.35
2023-05-15T11:36:10.949Z,19.36
2023-05-15T11:37:44.643Z,19.39
2023-05-15T11:39:16.821Z,19.44
2023-05-15T11:40:49.159Z,19.49
2023-05-15T11:42:21.279Z,19.55
2023-05-15T11:43:53.449Z,19.59
2023-05-15T11:45:25.607Z,19.63
2023-05-15T11:46:58.453Z,19.68
2023-05-15T11:48:42.373Z,19.76
2023-05-15T11:50:14.892Z,19.77
2023-05-15T11:51:49.120Z,19.79
2023-05-15T11:53:21.965Z,19.80
2023-05-15T11:54:54.642Z,19.83
2023-05-15T11:56:31.163Z,19.86
2023-05-15T11:58:04.656Z,19.86
2023-05-15T11:59:36.760Z,19.84
2023-05-15T12:01:11.188Z,19.88
2023-05-15T12:02:43.479Z,19.85
2023-05-15T12:04:17.685Z,19.88
2023-05-15T12:05:58.959Z,19.87
2023-05-15T12:07:32.037Z,19.92
2023-05-15T12:09:05.311Z,19.99
2023-05-15T12:10:40.577Z,20.06
2023-05-15T12:12:15.418Z,20.05
2023-05-15T12:13:52.936Z,20.06
2023-05-15T12:15:25.201Z,20.05
2023-05-15T12:17:03.249Z,20.10
2023-05-15T12:18:35.454Z,20.08
2023-05-15T12:20:12.865Z,20.14
2023-05-15T12:21:47.683Z,20.14
2023-05-15T12:23:22.022Z,20.12
2023-05-15T12:24:54.180Z,20.12
2023-05-15T12:26:27.077Z,20.16
2023-05-15T12:28:02.385Z,20.20
2023-05-15T12:29:34.500Z,20.19
2023-05-15T12:31:06.697Z,20.20
2023-05-15T12:32:39.479Z,20.27
2023-05-15T12:34:11.785Z,20.26
2023-05-15T12:35:52.378Z,20.32
2023-05-15T12:37:24.658Z,20.28
2023-05-15T12:38:57.570Z,20.27
2023-05-15T12:40:29.717Z,20.26
2023-05-15T12:42:01.852Z,20.27
2023-05-15T12:43:34.375Z,20.25
2023-05-15T12:45:16.145Z,20.31
2023-05-15T12:46:48.356Z,20.33
2023-05-15T12:48:20.785Z,20.32
2023-05-15T12:49:57.434Z,20.40
2023-05-15T12:51:30.274Z,20.41
2023-05-15T12:53:04.066Z,20.48
2023-05-15T12:54:41.450Z,20.50
2023-05-15T12:56:16.896Z,20.53
2023-05-15T12:57:49.345Z,20.51
2023-05-15T12:59:21.492Z,20.51
2023-05-15T13:00:53.824Z,20.50
2023-05-15T13:02:26.573Z,20.50
2023-05-15T13:03:59.397Z,20.49
2023-05-15T13:05:36.001Z,20.51
2023-05-15T13:07:08.079Z,20.47
2023-05-15T13:08:42.042Z,20.52
2023-05-15T13:10:14.315Z,20.48
2023-05-15T13:11:46.502Z,20.45
2023-05-15T13:13:18.757Z,20.47
2023-05-15T13:14:51.290Z,20.46
2023-05-15T13:16:30.048Z,20.54
2023-05-15T13:18:06.514Z,20.55
2023-05-15T13:19:38.739Z,20.56
2023-05-15T13:21:10.882Z,20.55
2023-05-15T13:22:43.006Z,20.54
2023-05-15T13:24:15.507Z,20.54
2023-05-15T13:25:48.037Z,20.55
2023-05-15T13:27:20.603Z,20.53
2023-05-15T13:28:52.826Z,20.51
2023-05-15T13:30:25.520Z,20.50
2023-05-15T13:31:58.002Z,20.37
2023-05-15T13:33:30.329Z,20.37
2023-05-15T13:35:03.601Z,20.29
2023-05-15T13:36:35.578Z,20.30
2023-05-15T13:38:10.394Z,20.17
2023-05-15T13:39:43.462Z,20.12
2023-05-15T13:41:15.561Z,20.07
2023-05-15T13:42:47.724Z,20.06
2023-05-15T13:44:19.798Z,20.07
2023-05-15T13:45:52.043Z,20.06
2023-05-15T13:47:24.201Z,20.01
2023-05-15T13:48:56.311Z,20.05
2023-05-15T13:50:28.540Z,20.03
2023-05-15T13:52:00.845Z,20.04
2023-05-15T13:53:32.865Z,20.04
2023-05-15T13:55:05.701Z,20.07
2023-05-15T13:56:37.747Z,20.07
2023-05-15T13:58:09.827Z,20.09
2023-05-15T13:59:41.954Z,20.09
2023-05-15T14:01:14.185Z,20.08
2023-05-15T14:02:46.454Z,20.12
2023-05-15T14:04:19.125Z,20.14
2023-05-15T14:05:51.700Z,20.11
2023-05-15T14:07:24.539Z,20.15
2023-05-15T14:08:56.623Z,20.15
2023-05-15T14:10:28.917Z,20.14
2023-05-15T14:12:01.083Z,20.17
2023-05-15T14:13:34.580Z,20.20
2023-05-15T14:15:07.249Z,20.20
2023-05-15T14:16:39.433Z,20.22
2023-05-15T14:18:11.610Z,20.25
2023-05-15T14:19:43.876Z,20.23
2023-05-15T14:21:16.183Z,20.25
2023-05-15T14:22:48.333Z,20.28
2023-05-15T14:24:20.481Z,20.30
2023-05-15T14:25:54.740Z,20.30
2023-05-15T14:27:26.788Z,20.32
2023-05-15T14:28:59.237Z,20.34
2023-05-15T14:30:31.513Z,20.36
2023-05-15T14:32:03.785Z,20.37
2023-05-15T14:33:35.927Z,20.36
2023-05-15T14:35:08.352Z,20.37
2023-05-15T14:36:40.583Z,20.36
2023-05-15T14:38:12.696Z,20.35
2023-05-15T14:39:44.959Z,20.37
2023-05-15T14:41:17.115Z,20.36
2023-05-15T14:42:49.321Z,20.38
2023-05-15T14:44:21.444Z,20.37
2023-05-15T14:45:53.686Z,20.33
2023-05-15T14:47:28.444Z,20.35
2023-05-15T14:49:00.732Z,20.34
2023-05-15T14:50:33.118Z,20.34
2023-05-15T14:52:07.262Z,20.34
2023-05-15T14:53:39.451Z,20.35
2023-05-15T14:55:11.655Z,20.36
2023-05-15T14:56:43.686Z,20.37
2023-05-15T14:58:15.859Z,20.38
2023-05-15T14:59:48.025Z,20.41
2023-05-15T15:01:20.794Z,20.38
2023-05-15T15:02:53.205Z,20.43
2023-05-15T15:04:27.032Z,20.47
2023-05-15T15:05:59.158Z,20.50
2023-05-15T15:07:31.431Z,20.52
2023-05-15T15:09:03.818Z,20.55
2023-05-15T15:10:41.110Z,20.58
2023-05-15T15:12:13.249Z,20.55
2023-05-15T15:13:45.567Z,20.55
2023-05-15T15:15:18.075Z,20.55
2023-05-15T15:16:50.333Z,20.56
2023-05-15T15:18:22.899Z,20.54
2023-05-15T15:19:55.693Z,20.57
2023-05-15T15:21:27.811Z,20.55
2023-05-15T15:23:00.616Z,20.56
2023-05-15T15:24:32.737Z,20.54
2023-05-15T15:26:04.890Z,20.53
2023-05-15T15:27:39.758Z,20.54
2023-05-15T15:29:11.941Z,20.54
2023-05-15T15:30:44.425Z,20.54
2023-05-15T15:32:16.680Z,20.55
2023-05-15T15:33:49.099Z,20.54
2023-05-15T15:35:21.200Z,20.56
2023-05-15T15:36:53.268Z,20.57
2023-05-15T15:38:25.420Z,20.59
2023-05-15T15:39:58.489Z,20.58
2023-05-15T15:41:31.470Z,20.59
2023-05-15T15:43:03.639Z,20.59
2023-05-15T15:44:35.928Z,20.59
2023-05-15T15:46:08.278Z,20.59
2023-05-15T15:47:40.581Z,20.57
2023-05-15T15:49:12.759Z,20.58
2023-05-15T15:50:44.937Z,20.56
2023-05-15T15:52:17.676Z,20.54
2023-05-15T15:53:49.757Z,20.53
2023-05-15T15:55:21.944Z,20.51
2023-05-15T15:56:54.115Z,20.51
2023-05-15T15:58:26.290Z,20.53
2023-05-15T15:59:58.687Z,20.50
2023-05-15T16:01:30.904Z,20.50
2023-05-15T16:03:03.165Z,20.49
2023-05-15T16:04:36.315Z,20.46
2023-05-15T16:06:08.424Z,20.46
2023-05-15T16:07:40.522Z,20.37
2023-05-15T16:09:12.895Z,20.40
2023-05-15T16:10:45.190Z,20.38
2023-05-15T16:12:17.278Z,20.39
2023-05-15T16:13:49.376Z,20.38
2023-05-15T16:15:23.686Z,20.34
2023-05-15T16:16:56.489Z,20.37
2023-05-15T16:18:28.818Z,20.37
2023-05-15T16:20:01.079Z,20.36
2023-05-15T16:21:33.200Z,20.35
2023-05-15T16:23:05.353Z,20.36
2023-05-15T16:24:37.825Z,20.38
2023-05-15T16:26:11.649Z,20.34
2023-05-15T16:27:43.821Z,20.35
2023-05-15T16:29:16.064Z,20.33
2023-05-15T16:30:51.450Z,20.35
2023-05-15T16:32:24.040Z,20.30
2023-05-15T16:33:56.248Z,20.27
2023-05-15T16:35:28.354Z,20.26
2023-05-15T16:37:00.461Z,20.23
2023-05-15T16:38:32.615Z,20.21
2023-05-15T16:40:05.223Z,20.19
2023-05-15T16:41:37.385Z,20.15
2023-05-15T16:43:09.653Z,20.13
2023-05-15T16:44:41.830Z,20.12
2023-05-15T16:46:14.229Z,20.11
2023-05-15T16:47:46.509Z,20.07
2023-05-15T16:49:18.785Z,20.07
2023-05-15T16:50:51.500Z,20.02
2023-05-15T16:52:23.623Z,20.00
2023-05-15T16:53:56.888Z,19.98
2023-05-15T16:55:29.896Z,20.03
2023-05-15T16:57:02.016Z,19.95
2023-05-15T16:58:34.208Z,19.90
2023-05-15T17:00:08.790Z,19.87
2023-05-15T17:01:40.981Z,19.81
2023-05-15T17:03:13.435Z,19.74
2023-05-15T17:04:45.630Z,19.67
2023-05-15T17:06:17.789Z,19.61
2023-05-15T17:07:49.873Z,19.56
2023-05-15T17:09:22.132Z,19.52
2023-05-15T17:10:54.306Z,19.52
2023-05-15T17:12:26.558Z,19.49
2023-05-15T17:13:58.619Z,19.48
2023-05-15T17:15:31.101Z,19.45
2023-05-15T17:17:03.287Z,19.45
2023-05-15T17:18:35.759Z,19.41
2023-05-15T17:20:08.534Z,19.36
2023-05-15T17:21:40.773Z,19.30
2023-05-15T17:23:13.134Z,19.22
2023-05-15T17:24:51.243Z,19.17
2023-05-15T17:26:24.135Z,19.12
2023-05-15T17:27:56.304Z,19.08
2023-05-15T17:29:28.404Z,19.05
2023-05-15T17:31:00.630Z,19.01
2023-05-15T17:32:32.795Z,18.96
2023-05-15T17:34:05.296Z,18.91
2023-05-15T17:35:37.470Z,18.85
2023-05-15T17:37:09.820Z,18.82
2023-05-15T17:38:41.923Z,18.77
2023-05-15T17:40:14.356Z,18.72
2023-05-15T17:41:47.332Z,18.70
2023-05-15T17:43:19.651Z,18.66
2023-05-15T17:44:51.864Z,18.58
2023-05-15T17:46:24.101Z,18.55
2023-05-15T17:48:02.893Z,18.50
2023-05-15T17:49:35.246Z,18.45
2023-05-15T17:51:07.365Z,18.39
2023-05-15T17:52:39.555Z,18.32
2023-05-15T17:54:11.737Z,18.28
2023-05-15T17:55:44.192Z,18.22
2023-05-15T17:57:16.422Z,18.14
2023-05-15T17:58:48.591Z,18.11
2023-05-15T18:00:20.989Z,18.08
2023-05-15T18:01:53.612Z,18.03
2023-05-15T18:03:25.958Z,17.98
2023-05-15T18:04:58.110Z,17.94
2023-05-15T18:06:32.044Z,17.90
2023-05-15T18:08:04.474Z,17.84
2023-05-15T18:09:39.468Z,17.77
2023-05-15T18:11:21.429Z,17.73
2023-05-15T18:12:54.274Z,17.70
2023-05-15T18:14:26.579Z,17.67
2023-05-15T18:15:58.813Z,17.60
2023-05-15T18:17:31.094Z,17.57
2023-05-15T18:19:03.218Z,17.55
2023-05-15T18:20:35.447Z,17.54
2023-05-15T18:22:07.686Z,17.51
2023-05-15T18:23:39.793Z,17.47
2023-05-15T18:25:11.903Z,17.45
2023-05-15T18:26:44.100Z,17.43
2023-05-15T18:28:16.206Z,17.39
2023-05-15T18:29:48.380Z,17.36
2023-05-15T18:31:20.847Z,17.36
2023-05-15T18:32:53.089Z,17.31
2023-05-15T18:34:25.251Z,17.30
2023-05-15T18:35:57.371Z,17.28
2023-05-15T18:37:29.560Z,17.27
2023-05-15T18:39:02.886Z,17.24
2023-05-15T18:40:34.933Z,17.31
2023-05-15T18:42:07.525Z,17.24
2023-05-15T18:43:39.658Z,17.20
2023-05-15T18:45:13.550Z,17.19
2023-05-15T18:46:46.007Z,17.13
2023-05-15T18:48:18.200Z,17.08
2023-05-15T18:49:50.279Z,17.04
2023-05-15T18:51:28.184Z,17.04
2023-05-15T18:53:00.324Z,16.97
2023-05-15T18:54:32.458Z,16.94
2023-05-15T18:56:04.978Z,16.94
2023-05-15T18:57:37.036Z,16.90
2023-05-15T18:59:09.216Z,16.89
2023-05-15T19:00:41.275Z,16.88
2023-05-15T19:02:13.739Z,16.85
2023-05-15T19:03:46.056Z,16.83
2023-05-15T19:05:18.353Z,16.82
2023-05-15T19:06:50.836Z,16.79
2023-05-15T19:08:23.043Z,16.79
2023-05-15T19:09:55.370Z,16.79
2023-05-15T19:11:27.771Z,16.80
2023-05-15T19:12:59.909Z,16.79
2023-05-15T19:14:33.040Z,16.81
2023-05-15T19:16:06.552Z,16.76
2023-05-15T19:17:39.266Z,16.75
2023-05-15T19:19:11.626Z,16.72
2023-05-15T19:20:43.824Z,16.67
2023-05-15T19:22:17.701Z,16.63
2023-05-15T19:23:51.177Z,16.61
2023-05-15T19:25:23.402Z,16.57
2023-05-15T19:26:55.695Z,16.56
2023-05-15T19:28:28.373Z,16.55
2023-05-15T19:30:00.621Z,16.57
2023-05-15T19:31:33.312Z,16.57
2023-05-15T19:33:05.501Z,16.60
2023-05-15T19:34:37.650Z,16.59
2023-05-15T19:36:09.960Z,16.59
2023-05-15T19:37:42.867Z,16.64
2023-05-15T19:39:15.038Z,16.62
2023-05-15T19:40:47.234Z,16.62
2023-05-15T19:42:19.398Z,16.63
2023-05-15T19:43:51.769Z,16.62
2023-05-15T19:45:23.985Z,16.63
2023-05-15T19:46:56.113Z,16.63
2023-05-15T19:48:28.496Z,16.62
2023-05-15T19:50:00.805Z,16.61
2023-05-15T19:51:34.552Z,16.62
2023-05-15T19:53:06.739Z,16.62
2023-05-15T19:54:39.945Z,16.65
2023-05-15T19:56:14.167Z,16.66
2023-05-15T19:57:48.510Z,16.67
2023-05-15T19:59:20.689Z,16.63
2023-05-15T20:00:53.177Z,16.62
2023-05-15T20:02:25.385Z,16.60
2023-05-15T20:03:57.674Z,16.61
2023-05-15T20:05:30.096Z,16.57
2023-05-15T20:07:02.558Z,16.54
2023-05-15T20:08:34.850Z,16.55
2023-05-15T20:10:08.804Z,16.58
2023-05-15T20:11:40.933Z,16.59
2023-05-15T20:13:13.129Z,16.57
2023-05-15T20:14:52.219Z,16.60
2023-05-15T20:16:24.554Z,16.55
2023-05-15T20:17:56.745Z,16.53
2023-05-15T20:19:31.846Z,16.54
2023-05-15T20:21:04.216Z,16.55
2023-05-15T20:22:36.667Z,16.54
2023-05-15T20:24:08.888Z,16.54
2023-05-15T20:25:41.104Z,16.51
2023-05-15T20:27:13.336Z,16.51
2023-05-15T20:28:45.670Z,16.48
2023-05-15T20:30:17.926Z,16.46
2023-05-15T20:31:50.282Z,16.43
2023-05-15T20:33:22.564Z,16.39
2023-05-15T20:34:56.454Z,16.38
2023-05-15T20:36:28.617Z,16.39
2023-05-15T20:38:01.564Z,16.38
2023-05-15T20:39:35.022Z,16.34
2023-05-15T20:41:07.291Z,16.36
2023-05-15T20:42:40.163Z,16.39
2023-05-15T20:44:12.462Z,16.37
2023-05-15T20:45:44.681Z,16.33
2023-05-15T20:47:16.895Z,16.29
2023-05-15T20:48:49.009Z,16.26
2023-05-15T20:50:21.266Z,16.23
2023-05-15T20:51:53.498Z,16.21
2023-05-15T20:53:25.788Z,16.19
2023-05-15T20:54:57.920Z,16.18
2023-05-15T20:56:30.350Z,16.14
2023-05-15T20:58:02.711Z,16.13
2023-05-15T20:59:34.942Z,16.15
2023-05-15T21:01:07.070Z,16.13
2023-05-15T21:02:40.107Z,16.14
2023-05-15T21:04:12.320Z,16.13
2023-05-15T21:05:45.116Z,16.13
2023-05-15T21:07:19.914Z,16.13
2023-05-15T21:08:52.376Z,16.12
2023-05-15T21:10:24.610Z,16.10
2023-05-15T21:11:56.961Z,16.10
2023-05-15T21:13:29.101Z,16.07
2023-05-15T21:15:02.266Z,16.07
2023-05-15T21:16:34.473Z,16.05
2023-05-15T21:18:06.732Z,16.03
2023-05-15T21:19:38.925Z,16.01
2023-05-15T21:21:11.248Z,15.98
2023-05-15T21:22:43.360Z,15.99
2023-05-15T21:24:17.108Z,16.00
2023-05-15T21:25:49.263Z,16.04
2023-05-15T21:27:21.423Z,16.02
2023-05-15T21:28:53.528Z,16.03
2023-05-15T21:30:25.825Z,16.02
2023-05-15T21:31:58.608Z,15.97
2023-05-15T21:33:30.712Z,15.94
2023-05-15T21:35:02.801Z,15.90
2023-05-15T21:36:35.498Z,15.91
2023-05-15T21:38:07.624Z,15.88
2023-05-15T21:39:39.694Z,15.90
2023-05-15T21:41:12.285Z,15.89
2023-05-15T21:42:44.522Z,15.88
2023-05-15T21:44:16.562Z,15.86
2023-05-15T21:45:48.625Z,15.83
2023-05-15T21:47:20.932Z,15.81